Time;durP1;ratioP1;P1;durP2;ratioP2;P2;SDS_P1;SDS_P2;PMS_P1;PMS_P2;Temp;Humidity;BMP_temperature;BMP_pressure;BME280_temperature;BME280_humidity;BME280_pressure;Samples;Min_cycle;Max_cycle;Signal;HPM_P1;HPM_P2
2022/03/30 00:01:24;;;;;;;23.40;14.27;;;;;;;5.10;90.45;90420.84;4993948;28;20026;-62
2022/03/30 00:03:50;;;;;;;24.30;14.75;;;;;;;5.02;90.38;90413.56;4992255;28;20046;-62
2022/03/30 00:06:16;;;;;;;23.52;15.02;;;;;;;5.00;90.99;90415.69;4993634;28;20046;-62
2022/03/30 00:08:42;;;;;;;25.08;15.90;;;;;;;4.95;91.07;90412.38;4993476;28;20039;-62
2022/03/30 00:11:08;;;;;;;25.30;15.52;;;;;;;4.90;92.48;90410.59;4993581;28;20044;-61
2022/03/30 00:13:35;;;;;;;25.10;15.50;;;;;;;4.86;92.90;90414.06;4993582;28;20113;-62
2022/03/30 00:16:02;;;;;;;28.27;15.75;;;;;;;4.80;93.74;90411.53;4993601;28;20042;-61
2022/03/30 00:18:28;;;;;;;30.52;16.52;;;;;;;4.73;94.38;90408.47;4993393;28;20058;-62
2022/03/30 00:20:53;;;;;;;24.00;15.35;;;;;;;4.73;95.60;90405.03;4993646;28;20066;-63
2022/03/30 00:23:19;;;;;;;25.75;14.30;;;;;;;4.70;96.22;90408.25;4992118;28;20041;-62
2022/03/30 00:25:44;;;;;;;22.50;15.32;;;;;;;4.73;95.81;90410.31;4992635;28;20034;-62
2022/03/30 00:28:10;;;;;;;27.50;16.45;;;;;;;4.70;96.10;90401.13;4993313;28;20042;-62
2022/03/30 00:30:36;;;;;;;24.77;16.90;;;;;;;4.70;96.40;90398.50;4993152;28;20042;-62
2022/03/30 00:33:01;;;;;;;25.45;14.85;;;;;;;4.71;96.84;90399.28;4993170;28;20053;-63
2022/03/30 00:35:27;;;;;;;28.73;14.95;;;;;;;4.70;97.23;90384.53;4993011;28;20046;-63
2022/03/30 00:37:52;;;;;;;23.13;14.60;;;;;;;4.80;96.88;90394.94;4993095;28;20074;-62
2022/03/30 00:40:18;;;;;;;24.30;14.48;;;;;;;4.89;97.50;90395.06;4993237;28;20042;-62
2022/03/30 00:42:44;;;;;;;26.92;14.52;;;;;;;4.91;96.99;90399.00;4992998;28;20066;-60
2022/03/30 00:45:13;;;;;;;21.25;13.60;;;;;;;4.94;97.14;90382.59;4992781;28;20096;-63
2022/03/30 00:47:39;;;;;;;25.60;14.75;;;;;;;5.01;97.97;90390.91;4992858;28;20507;-61
2022/03/30 00:50:07;;;;;;;19.85;13.82;;;;;;;4.95;97.42;90381.53;4992720;28;20424;-61
2022/03/30 00:52:33;;;;;;;21.45;13.82;;;;;;;5.00;97.01;90391.97;4992750;28;20473;-61
2022/03/30 00:54:59;;;;;;;25.90;15.73;;;;;;;4.90;97.26;90399.28;4991426;28;20533;-61
2022/03/30 00:57:26;;;;;;;22.95;14.57;;;;;;;4.74;98.56;90396.09;4992764;28;20057;-60
2022/03/30 00:59:51;;;;;;;26.30;15.30;;;;;;;4.80;98.65;90401.00;4992702;28;20066;-61
2022/03/30 01:02:17;;;;;;;26.75;16.60;;;;;;;4.76;98.21;90388.69;4992833;28;20499;-62
2022/03/30 01:04:46;;;;;;;23.38;15.70;;;;;;;4.70;98.80;90387.16;4992544;28;20559;-62
2022/03/30 01:07:13;;;;;;;25.45;15.80;;;;;;;4.68;99.23;90395.38;4991291;28;20038;-62
2022/03/30 01:09:38;;;;;;;24.50;14.57;;;;;;;4.73;99.38;90389.22;4992380;28;20046;-63
2022/03/30 01:12:05;;;;;;;24.67;15.05;;;;;;;4.69;98.80;90383.75;4991034;28;20120;-62
2022/03/30 01:14:31;;;;;;;27.55;16.05;;;;;;;4.69;99.17;90388.25;4990902;28;20038;-61
2022/03/30 01:16:57;;;;;;;27.17;14.82;;;;;;;4.69;99.43;90383.75;4988809;28;20057;-62
2022/03/30 01:19:28;;;;;;;25.98;15.70;;;;;;;4.69;99.46;90388.25;4990939;28;20520;-62
2022/03/30 01:21:53;;;;;;;25.08;15.75;;;;;;;4.68;99.27;90386.69;4990898;28;20030;-61
2022/03/30 01:24:19;;;;;;;24.30;15.20;;;;;;;4.59;99.67;90380.50;4990940;28;20034;-61
2022/03/30 01:26:44;;;;;;;25.35;15.93;;;;;;;4.43;100.00;90366.78;4990841;28;20124;-63
2022/03/30 01:34:39;;;;;;;25.35;15.77;;;;;;;4.50;100.00;90381.13;4990487;28;20088;-61
2022/03/30 01:37:06;;;;;;;29.35;16.83;;;;;;;4.46;100.00;90368.81;4989845;28;20042;-62
2022/03/30 01:39:32;;;;;;;25.92;16.13;;;;;;;4.46;100.00;90374.09;4990813;28;20034;-62
2022/03/30 01:41:58;;;;;;;30.52;16.88;;;;;;;4.37;100.00;90363.41;4990715;28;20141;-62
2022/03/30 01:44:24;;;;;;;28.42;16.35;;;;;;;4.37;100.00;90368.66;4990499;28;20034;-62
2022/03/30 01:46:53;;;;;;;23.00;15.60;;;;;;;4.35;100.00;90365.53;4990592;28;20030;-62
2022/03/30 01:49:22;;;;;;;24.52;15.57;;;;;;;4.44;100.00;90373.59;4988415;28;20042;-62
2022/03/30 01:51:49;;;;;;;27.70;16.38;;;;;;;4.42;100.00;90371.25;4990639;28;20076;-62
2022/03/30 01:54:20;;;;;;;29.23;16.73;;;;;;;4.37;100.00;90362.63;4990375;28;20031;-62
2022/03/30 01:56:49;;;;;;;24.67;15.55;;;;;;;4.27;100.00;90349.63;4990819;28;20034;-62
2022/03/30 01:59:15;;;;;;;26.20;16.38;;;;;;;4.29;100.00;90361.41;4990456;28;20108;-62
2022/03/30 02:01:41;;;;;;;30.40;16.85;;;;;;;4.29;100.00;90360.63;4990440;28;20034;-62
2022/03/30 02:04:08;;;;;;;24.50;15.48;;;;;;;4.35;100.00;90362.91;4990370;28;20066;-61
2022/03/30 02:06:34;;;;;;;24.60;14.68;;;;;;;4.37;100.00;90360.78;4990329;28;20057;-62
2022/03/30 02:09:00;;;;;;;25.13;16.30;;;;;;;4.32;100.00;90368.75;4990338;28;20488;-62
2022/03/30 02:11:26;;;;;;;25.52;14.77;;;;;;;4.36;100.00;90366.31;4990360;28;20081;-62
2022/03/30 02:13:52;;;;;;;22.10;15.68;;;;;;;4.42;100.00;90367.84;4990686;28;20072;-62
2022/03/30 02:16:18;;;;;;;28.45;14.88;;;;;;;4.41;100.00;90372.28;4990269;28;20081;-61
2022/03/30 02:18:44;;;;;;;30.15;16.15;;;;;;;4.29;100.00;90379.06;4990369;28;20042;-61
2022/03/30 02:21:09;;;;;;;28.27;16.77;;;;;;;4.20;100.00;90387.59;4990322;28;20035;-62
2022/03/30 02:23:35;;;;;;;27.08;16.25;;;;;;;4.08;100.00;90386.44;4990128;28;20121;-62
2022/03/30 02:26:00;;;;;;;28.42;16.98;;;;;;;4.03;100.00;90389.91;4990231;28;20089;-60
2022/03/30 02:28:26;;;;;;;103.75;25.67;;;;;;;3.89;100.00;90387.19;4990244;28;20034;-60
2022/03/30 02:30:51;;;;;;;117.03;28.02;;;;;;;3.82;100.00;90391.22;4989976;28;20038;-61
2022/03/30 02:33:17;;;;;;;123.40;24.92;;;;;;;3.66;100.00;90385.34;4990167;28;20030;-60
2022/03/30 02:35:42;;;;;;;68.28;20.10;;;;;;;3.54;100.00;90384.94;4990050;28;20543;-60
2022/03/30 02:38:07;;;;;;;36.15;18.42;;;;;;;3.49;100.00;90391.06;4990179;28;20034;-60
2022/03/30 02:40:33;;;;;;;29.17;17.45;;;;;;;3.45;100.00;90397.91;4989947;28;20142;-61
2022/03/30 02:42:58;;;;;;;46.65;18.58;;;;;;;3.30;100.00;90390.94;4990136;28;20405;-61
2022/03/30 02:45:24;;;;;;;40.90;17.55;;;;;;;3.28;100.00;90398.34;4989967;28;20515;-60
2022/03/30 02:50:33;;;;;;;;;;;;;;;3.16;100.00;90400.56;4993653;28;20041;-61
2022/03/30 02:52:59;;;;;;;66.93;21.13;;;;;;;3.08;100.00;90397.75;4989904;28;19921;-62
2022/03/30 02:55:24;;;;;;;71.57;21.23;;;;;;;3.10;100.00;90391.16;4989747;28;20281;-60
2022/03/30 02:57:49;;;;;;;43.13;19.83;;;;;;;3.17;100.00;90386.38;4993468;28;20030;-59
2022/03/30 03:00:15;;;;;;;37.80;18.10;;;;;;;3.32;100.00;90382.81;4993475;28;20510;-60
2022/03/30 03:02:41;;;;;;;107.68;25.23;;;;;;;3.40;100.00;90376.94;4993497;28;20117;-60
2022/03/30 03:05:07;;;;;;;33.30;17.67;;;;;;;3.55;100.00;90370.72;4993315;28;20042;-60
2022/03/30 03:07:33;;;;;;;39.92;19.50;;;;;;;3.58;100.00;90372.81;4993580;28;20034;-61
2022/03/30 03:09:59;;;;;;;41.38;18.95;;;;;;;3.59;100.00;90369.09;4993041;28;20592;-60
2022/03/30 03:12:24;;;;;;;32.78;19.90;;;;;;;3.53;100.00;90372.88;4992059;28;20026;-61
2022/03/30 03:14:50;;;;;;;33.25;19.38;;;;;;;3.54;100.00;90369.16;4993030;28;20069;-60
2022/03/30 03:17:15;;;;;;;35.95;19.63;;;;;;;3.56;100.00;90365.19;4993213;28;20030;-61
2022/03/30 03:19:41;;;;;;;30.73;19.42;;;;;;;3.57;100.00;90365.97;4993387;28;20100;-61
2022/03/30 03:22:07;;;;;;;33.67;19.70;;;;;;;3.56;100.00;90373.09;4993451;28;20053;-61
2022/03/30 03:24:32;;;;;;;40.20;19.55;;;;;;;3.44;100.00;90371.91;4992838;28;20027;-61
2022/03/30 03:26:59;;;;;;;27.05;17.10;;;;;;;3.51;100.00;90365.25;4993106;28;20497;-60
2022/03/30 03:29:25;;;;;;;34.50;16.45;;;;;;;3.66;100.00;90363.53;4993268;28;20045;-61
2022/03/30 03:31:50;;;;;;;26.73;15.63;;;;;;;3.70;100.00;90367.16;4992850;28;20034;-60
2022/03/30 03:34:16;;;;;;;36.47;17.83;;;;;;;3.72;100.00;90360.53;4992639;28;20031;-60
2022/03/30 03:36:41;;;;;;;29.55;15.75;;;;;;;3.69;100.00;90363.75;4992835;28;20034;-60
2022/03/30 03:39:06;;;;;;;29.80;16.80;;;;;;;3.68;100.00;90361.41;4992779;28;20121;-61
2022/03/30 03:41:32;;;;;;;27.63;16.25;;;;;;;3.66;100.00;90359.06;4992681;28;20077;-61
2022/03/30 03:43:57;;;;;;;30.77;17.23;;;;;;;3.68;100.00;90361.41;4992664;28;20031;-61
2022/03/30 03:46:23;;;;;;;23.52;16.33;;;;;;;3.56;100.00;90359.16;4992655;28;20050;-61
2022/03/30 03:48:48;;;;;;;32.33;16.88;;;;;;;3.43;100.00;90350.09;4992681;28;20531;-60
2022/03/30 03:51:14;;;;;;;28.70;17.52;;;;;;;3.40;100.00;90369.06;4992380;28;20038;-60
2022/03/30 03:53:39;;;;;;;34.25;17.88;;;;;;;3.24;100.00;90360.53;4992507;28;20034;-60
2022/03/30 03:56:05;;;;;;;29.77;17.15;;;;;;;3.25;100.00;90363.94;4992535;28;20030;-60
2022/03/30 03:58:31;;;;;;;30.48;16.35;;;;;;;3.33;100.00;90362.56;4992626;28;20053;-61
2022/03/30 04:00:56;;;;;;;31.40;16.77;;;;;;;3.48;100.00;90360.56;4991677;28;20511;-61
2022/03/30 04:03:22;;;;;;;28.38;16.95;;;;;;;3.48;100.00;90359.78;4993892;28;20563;-61
2022/03/30 04:05:47;;;;;;;25.92;16.05;;;;;;;3.61;100.00;90361.72;4993705;28;20070;-61
2022/03/30 04:08:13;;;;;;;29.42;15.18;;;;;;;3.62;100.00;90360.66;4993621;28;20041;-61
2022/03/30 04:10:39;;;;;;;32.33;16.02;;;;;;;3.66;100.00;90361.69;4993356;28;20046;-62
2022/03/30 04:13:06;;;;;;;42.15;21.65;;;;;;;3.60;100.00;90363.56;4993542;28;20038;-62
2022/03/30 04:15:32;;;;;;;32.05;18.27;;;;;;;3.70;100.00;90367.94;4992880;28;20034;-62
2022/03/30 04:17:58;;;;;;;37.25;19.63;;;;;;;3.73;100.00;90364.75;4993471;28;20050;-61
2022/03/30 04:20:23;;;;;;;28.63;17.25;;;;;;;3.77;100.00;90357.84;4993336;28;20042;-61
2022/03/30 04:22:49;;;;;;;44.10;19.98;;;;;;;3.86;100.00;90360.66;4992628;28;20508;-64
2022/03/30 04:25:14;;;;;;;36.33;18.15;;;;;;;3.99;100.00;90367.09;4993240;28;20128;-59
2022/03/30 04:27:51;;;;;;;35.53;19.70;;;;;;;3.96;100.00;90360.53;4993501;28;20121;-62
2022/03/30 04:30:19;;;;;;;31.73;15.85;;;;;;;3.95;100.00;90358.19;4992673;28;20049;-61
2022/03/30 04:32:45;;;;;;;31.90;16.65;;;;;;;3.99;100.00;90356.56;4993080;28;20128;-60
2022/03/30 04:35:12;;;;;;;41.00;17.08;;;;;;;3.91;100.00;90342.16;4993031;28;20119;-61
2022/03/30 04:37:39;;;;;;;34.40;17.55;;;;;;;3.99;100.00;90356.56;4992957;28;20121;-61
2022/03/30 04:40:05;;;;;;;34.78;17.00;;;;;;;4.14;100.00;90359.00;4992657;28;20445;-60
2022/03/30 04:42:31;;;;;;;36.15;18.40;;;;;;;4.07;100.00;90361.97;4982688;28;20041;-60
2022/03/30 04:44:56;;;;;;;35.65;14.45;;;;;;;3.95;100.00;90352.94;4971884;28;20034;-60
2022/03/30 04:47:22;;;;;;;27.85;16.10;;;;;;;3.98;100.00;90355.00;4972869;28;20031;-60
2022/03/30 04:49:47;;;;;;;27.27;15.75;;;;;;;3.81;100.00;90356.25;4984717;28;20493;-60
2022/03/30 04:52:13;;;;;;;24.67;14.98;;;;;;;3.82;100.00;90347.28;4991772;28;20034;-60
2022/03/30 04:54:38;;;;;;;41.53;16.92;;;;;;;3.94;100.00;90354.75;4991293;28;20031;-61
2022/03/30 04:57:04;;;;;;;36.22;17.77;;;;;;;3.91;100.00;90336.91;4991417;28;20117;-61
2022/03/30 04:59:30;;;;;;;31.73;15.57;;;;;;;4.16;100.00;90351.59;4989278;28;20034;-60
2022/03/30 05:01:55;;;;;;;35.72;16.67;;;;;;;4.50;100.00;90351.38;4992328;28;20554;-60
2022/03/30 05:04:20;;;;;;;33.08;17.30;;;;;;;5.52;96.06;90350.50;4990993;28;20110;-61
2022/03/30 05:06:46;;;;;;;34.08;16.88;;;;;;;6.88;84.60;90342.69;4991512;28;20046;-61
2022/03/30 05:09:12;;;;;;;32.90;17.55;;;;;;;8.28;74.57;90353.66;4991365;28;20049;-61
2022/03/30 05:11:39;;;;;;;55.05;18.42;;;;;;;7.53;73.60;90354.63;4991291;28;20092;-60
2022/03/30 05:14:05;;;;;;;44.60;18.33;;;;;;;6.64;78.21;90360.72;4991668;28;20042;-60
2022/03/30 05:16:31;;;;;;;44.80;18.55;;;;;;;6.29;81.75;90357.72;4991570;28;20041;-61
2022/03/30 05:18:56;;;;;;;45.92;19.75;;;;;;;6.42;83.36;90358.78;4992320;28;20080;-60
2022/03/30 05:21:22;;;;;;;35.40;18.02;;;;;;;8.19;76.33;90363.44;4992042;28;20588;-61
2022/03/30 05:23:48;;;;;;;41.63;17.45;;;;;;;9.66;67.79;90366.97;4991589;28;20511;-61
2022/03/30 05:26:13;;;;;;;39.08;15.93;;;;;;;11.00;61.68;90368.09;4991102;28;20050;-60
2022/03/30 05:28:40;;;;;;;33.80;16.02;;;;;;;11.54;57.72;90370.81;4991885;28;20103;-57
2022/03/30 05:31:06;;;;;;;36.45;18.02;;;;;;;11.82;56.18;90370.25;4991779;28;20488;-59
2022/03/30 05:33:32;;;;;;;31.38;17.60;;;;;;;12.62;53.82;90361.78;4991591;28;20044;-60
2022/03/30 05:35:57;;;;;;;87.90;23.63;;;;;;;13.30;52.81;90365.41;4991566;28;20035;-56
2022/03/30 05:38:24;;;;;;;43.95;20.90;;;;;;;12.83;53.02;90362.44;4991368;28;20041;-58
2022/03/30 05:40:50;;;;;;;40.17;21.00;;;;;;;13.10;52.67;90366.31;4991627;28;20038;-59
2022/03/30 05:43:16;;;;;;;33.60;20.05;;;;;;;13.15;52.10;90371.41;4991545;28;20084;-60
2022/03/30 05:45:42;;;;;;;46.25;21.83;;;;;;;12.88;52.70;90371.00;4991961;28;20043;-60
2022/03/30 05:48:08;;;;;;;48.50;22.48;;;;;;;13.38;51.91;90374.38;4991964;28;20522;-61
2022/03/30 05:50:34;;;;;;;46.33;22.45;;;;;;;14.39;49.46;90376.72;4991259;28;20052;-60
2022/03/30 05:52:59;;;;;;;42.53;21.83;;;;;;;15.18;48.06;90365.97;4991080;28;20034;-59
2022/03/30 05:55:25;;;;;;;38.55;19.85;;;;;;;16.20;45.57;90365.72;4991516;28;20043;-61
2022/03/30 05:57:51;;;;;;;50.75;23.33;;;;;;;16.96;43.98;90358.59;4991269;28;20037;-60
2022/03/30 06:00:16;;;;;;;40.97;20.48;;;;;;;18.98;41.02;90365.63;4991383;28;20046;-59
2022/03/30 06:02:41;;;;;;;36.22;19.17;;;;;;;20.23;38.70;90369.84;4990479;28;20031;-60
2022/03/30 06:05:07;;;;;;;51.70;19.80;;;;;;;21.91;36.42;90362.59;4991016;28;20035;-61
2022/03/30 06:07:33;;;;;;;27.40;15.23;;;;;;;22.39;35.25;90376.41;4991496;28;20440;-59
2022/03/30 06:09:59;;;;;;;37.97;17.23;;;;;;;23.28;34.13;90375.91;4991319;28;20074;-59
2022/03/30 06:12:24;;;;;;;28.25;14.27;;;;;;;23.48;33.43;90367.97;4990202;28;20053;-60
2022/03/30 06:14:51;;;;;;;25.65;14.25;;;;;;;23.39;33.59;90366.91;4991136;28;20046;-60
2022/03/30 06:17:18;;;;;;;25.92;14.43;;;;;;;23.40;33.71;90373.88;4991848;28;20181;-59
2022/03/30 06:19:47;;;;;;;32.20;13.77;;;;;;;22.77;34.54;90367.69;4991503;28;20042;-60
2022/03/30 06:22:13;;;;;;;25.70;14.05;;;;;;;24.54;32.70;90370.81;4991574;28;20504;-60
2022/03/30 06:24:40;;;;;;;25.65;13.38;;;;;;;26.67;30.32;90366.66;4994796;28;20062;-60
2022/03/30 06:27:07;;;;;;;23.20;11.73;;;;;;;27.19;30.04;90376.09;4994206;28;20034;-60
2022/03/30 06:29:34;;;;;;;15.45;10.30;;;;;;;26.33;31.10;90377.03;4995252;28;20030;-60
2022/03/30 06:31:59;;;;;;;22.92;10.88;;;;;;;26.97;29.96;90371.06;4994341;28;20412;-60
2022/03/30 06:34:25;;;;;;;21.60;10.32;;;;;;;26.90;30.69;90376.69;4994121;28;20034;-60
2022/03/30 06:36:51;;;;;;;22.10;8.98;;;;;;;24.13;32.60;90371.66;4975633;28;20035;-60
2022/03/30 06:39:16;;;;;;;62.13;12.65;;;;;;;24.11;33.37;90371.28;4975743;28;20061;-61
2022/03/30 06:41:43;;;;;;;20.33;10.55;;;;;;;24.20;34.03;90374.28;4978985;28;20030;-61
2022/03/30 06:44:09;;;;;;;74.72;42.97;;;;;;;24.19;32.99;90380.91;4993555;28;20030;-61
2022/03/30 06:46:38;;;;;;;29.83;16.58;;;;;;;23.43;34.12;90371.13;4994005;28;20114;-60
2022/03/30 06:49:09;;;;;;;19.90;10.20;;;;;;;23.42;34.12;90375.03;4994832;28;20076;-60
2022/03/30 06:51:36;;;;;;;24.58;9.48;;;;;;;24.35;33.54;90374.16;4993864;28;20105;-60
2022/03/30 06:54:01;;;;;;;38.75;11.63;;;;;;;24.90;32.45;90382.00;4989597;28;20049;-60
2022/03/30 06:56:27;;;;;;;25.60;10.20;;;;;;;23.62;33.95;90380.69;4975097;28;20034;-60
2022/03/30 06:58:53;;;;;;;18.45;9.15;;;;;;;20.46;38.42;90390.38;4973454;28;20047;-61
2022/03/30 07:01:19;;;;;;;16.42;9.15;;;;;;;19.96;39.84;90382.84;4974374;28;20109;-60
2022/03/30 07:03:44;;;;;;;20.63;10.20;;;;;;;20.21;40.20;90385.66;4974678;28;20050;-61
2022/03/30 07:06:10;;;;;;;18.35;12.07;;;;;;;19.65;41.24;90383.44;4977479;28;20038;-59
2022/03/30 07:11:19;;;;;;;27.15;9.48;;;;;;;20.31;39.42;90393.00;4974263;28;20125;-60
2022/03/30 07:13:45;;;;;;;36.40;10.60;;;;;;;21.94;37.53;90390.88;4974430;28;20493;-59
2022/03/30 07:16:10;;;;;;;17.70;10.60;;;;;;;24.46;33.62;90388.41;4973813;28;20038;-59
2022/03/30 07:18:36;;;;;;;22.00;9.57;;;;;;;23.64;34.78;90391.16;4974475;28;20050;-60
2022/03/30 07:21:02;;;;;;;22.10;8.70;;;;;;;22.98;34.83;90392.00;4974160;28;20507;-61
2022/03/30 07:23:27;;;;;;;17.88;9.27;;;;;;;25.25;32.16;90386.22;4974346;28;20038;-61
2022/03/30 07:25:54;;;;;;;30.60;10.38;;;;;;;26.08;31.08;90375.53;4972737;28;20105;-61
2022/03/30 07:28:20;;;;;;;18.25;10.48;;;;;;;25.28;32.04;90381.91;4974022;28;20113;-60
2022/03/30 07:30:48;;;;;;;34.85;12.60;;;;;;;23.82;33.83;90378.94;4974477;28;20043;-59
2022/03/30 07:33:14;;;;;;;42.90;15.82;;;;;;;21.20;37.35;90390.53;4974173;28;20039;-61
2022/03/30 07:35:46;;;;;;;31.02;10.07;;;;;;;19.32;40.12;90387.84;4972984;28;20034;-61
2022/03/30 07:38:13;;;;;;;43.13;18.65;;;;;;;20.22;39.23;90399.94;4974091;28;20062;-60
2022/03/30 07:40:39;;;;;;;33.00;12.57;;;;;;;20.17;39.11;90390.25;4973808;28;20035;-59
2022/03/30 07:43:05;;;;;;;21.20;9.73;;;;;;;21.14;37.52;90389.34;4972872;28;20428;-59
2022/03/30 07:45:31;;;;;;;33.70;10.30;;;;;;;21.84;37.31;90392.44;4973788;28;20189;-58
2022/03/30 07:47:56;;;;;;;21.55;9.85;;;;;;;21.46;37.54;90385.88;4974439;28;20122;-59
2022/03/30 07:50:22;;;;;;;182.23;23.13;;;;;;;21.53;37.38;90381.25;4973684;28;20460;-59
2022/03/30 07:52:48;;;;;;;28.58;10.50;;;;;;;22.92;36.67;90383.53;4973595;28;20035;-59
2022/03/30 07:55:14;;;;;;;64.50;13.73;;;;;;;21.83;36.10;90371.94;4972951;28;20050;-60
2022/03/30 07:57:42;;;;;;;42.15;10.95;;;;;;;21.74;36.17;90375.03;4974027;28;20402;-61
2022/03/30 08:00:10;;;;;;;37.53;12.07;;;;;;;22.70;35.31;90374.69;4973827;28;20042;-60
2022/03/30 08:02:35;;;;;;;20.98;9.30;;;;;;;21.96;35.81;90383.91;4972710;28;20039;-61
2022/03/30 08:05:01;;;;;;;29.20;10.68;;;;;;;22.33;35.14;90375.28;4972035;28;20098;-61
2022/03/30 08:07:26;;;;;;;47.45;10.45;;;;;;;24.45;33.14;90375.97;4972715;28;20055;-60
2022/03/30 08:09:53;;;;;;;27.55;8.13;;;;;;;25.08;32.06;90387.22;4973283;28;20060;-61
2022/03/30 08:12:20;;;;;;;22.13;9.43;;;;;;;24.60;32.48;90390.94;4973449;28;20078;-60
2022/03/30 08:14:46;;;;;;;28.25;9.18;;;;;;;25.80;31.86;90384.22;4973040;28;20053;-60
2022/03/30 08:17:12;;;;;;;16.73;7.47;;;;;;;26.82;29.89;90378.78;4973398;28;20098;-60
2022/03/30 08:19:38;;;;;;;21.58;8.32;;;;;;;26.49;29.55;90380.63;4972275;28;20035;-62
2022/03/30 08:24:48;;;;;;;32.38;13.88;;;;;;;25.93;31.14;90385.16;4972559;28;20058;-61
2022/03/30 08:27:16;;;;;;;33.53;13.13;;;;;;;26.54;30.03;90379.38;4973117;28;20244;-61
2022/03/30 08:29:43;;;;;;;19.48;8.70;;;;;;;24.98;31.53;90388.91;4971197;28;20039;-60
2022/03/30 08:32:10;;;;;;;42.13;10.43;;;;;;;25.63;31.10;90381.34;4973180;28;20505;-60
2022/03/30 08:34:35;;;;;;;20.88;8.20;;;;;;;24.67;32.13;90371.81;4973111;28;20076;-61
2022/03/30 08:37:01;;;;;;;22.30;8.35;;;;;;;24.04;32.87;90368.66;4972936;28;20516;-60
2022/03/30 08:39:26;;;;;;;35.50;8.77;;;;;;;23.49;33.10;90369.53;4972656;28;20430;-61
2022/03/30 08:41:53;;;;;;;21.48;8.63;;;;;;;23.96;34.02;90369.88;4972626;28;20125;-60
2022/03/30 08:44:19;;;;;;;27.70;9.02;;;;;;;23.23;34.12;90365.47;4972381;28;20531;-59
2022/03/30 08:46:45;;;;;;;19.58;8.20;;;;;;;21.79;36.18;90371.16;4972633;28;20035;-60
2022/03/30 08:49:11;;;;;;;36.33;13.13;;;;;;;23.29;33.98;90365.81;4972942;28;20374;-61
2022/03/30 08:51:39;;;;;;;24.42;11.05;;;;;;;24.35;33.25;90374.94;4972427;28;20420;-61
2022/03/30 08:54:09;;;;;;;28.38;13.05;;;;;;;24.45;32.96;90356.94;4971890;28;20046;-60
2022/03/30 08:56:36;;;;;;;23.20;9.35;;;;;;;25.11;31.88;90351.03;4988747;28;20543;-61
2022/03/30 08:59:04;;;;;;;18.92;8.88;;;;;;;24.51;32.46;90351.84;4991333;28;20041;-61
2022/03/30 09:01:34;;;;;;;19.52;8.80;;;;;;;23.02;35.26;90339.25;4992402;28;20520;-61
2022/03/30 09:04:02;;;;;;;21.65;9.18;;;;;;;21.62;36.40;90334.84;4992372;28;20516;-60
2022/03/30 09:06:35;;;;;;;26.95;9.52;;;;;;;21.01;37.54;90334.13;4992228;28;20058;-61
2022/03/30 09:09:01;;;;;;;20.83;8.85;;;;;;;19.88;38.95;90330.00;4991257;28;20492;-61
2022/03/30 09:11:29;;;;;;;18.10;8.95;;;;;;;19.89;39.36;90333.47;4991478;28;20101;-60
2022/03/30 09:14:05;;;;;;;19.15;9.35;;;;;;;21.01;38.35;90327.94;4992397;28;20046;-61
2022/03/30 09:16:44;;;;;;;30.10;9.43;;;;;;;20.24;39.12;90324.69;4992098;28;20046;-60
2022/03/30 09:19:15;;;;;;;35.72;11.82;;;;;;;19.84;40.69;90331.88;4992019;28;20046;-60
2022/03/30 09:21:42;;;;;;;26.35;12.48;;;;;;;20.70;39.94;90330.22;4991915;28;20058;-59
2022/03/30 09:24:08;;;;;;;52.95;11.60;;;;;;;22.68;36.51;90324.75;4991427;28;20042;-59
2022/03/30 09:26:34;;;;;;;53.05;10.35;;;;;;;24.53;34.05;90320.34;4992043;28;20040;-60
2022/03/30 09:29:01;;;;;;;30.08;9.70;;;;;;;24.11;35.01;90321.59;4991772;28;20124;-59
2022/03/30 09:31:28;;;;;;;31.77;9.98;;;;;;;23.16;34.32;90313.19;4991349;28;20522;-61
2022/03/30 09:33:53;;;;;;;28.00;9.80;;;;;;;21.62;36.45;90318.63;4991617;28;20042;-60
2022/03/30 09:36:33;;;;;;;27.92;10.40;;;;;;;21.49;37.69;90317.47;4991850;28;20046;-61
2022/03/30 09:39:00;;;;;;;23.80;10.23;;;;;;;22.49;36.16;90309.75;4991470;28;20105;-60
2022/03/30 09:41:25;;;;;;;43.20;10.52;;;;;;;23.28;35.52;90307.28;4991810;28;20493;-60
2022/03/30 09:44:11;;;;;;;23.23;9.88;;;;;;;22.64;34.23;90305.78;4991631;28;20118;-61
2022/03/30 09:46:51;;;;;;;33.47;20.25;;;;;;;22.08;36.29;90296.78;4991827;28;20034;-60
2022/03/30 09:49:37;;;;;;;26.70;10.93;;;;;;;23.02;34.92;90293.13;4972287;28;20105;-61
2022/03/30 09:52:19;;;;;;;20.40;9.23;;;;;;;21.91;35.39;90297.63;4972152;28;20122;-61
2022/03/30 09:54:50;;;;;;;25.45;11.38;;;;;;;20.89;37.62;90291.22;4983564;28;20473;-61
2022/03/30 09:57:18;;;;;;;60.35;12.13;;;;;;;19.36;40.32;90286.13;4991065;28;20513;-60
2022/03/30 10:00:17;;;;;;;40.65;10.60;;;;;;;19.55;40.44;90279.69;4991026;28;20026;-59
2022/03/30 10:02:46;;;;;;;39.15;11.05;;;;;;;19.64;38.89;90282.06;4989706;28;20096;-59
2022/03/30 10:05:16;;;;;;;19.15;9.43;;;;;;;19.56;38.78;90275.06;4991741;28;20206;-58
2022/03/30 10:07:42;;;;;;;69.68;12.85;;;;;;;19.71;38.83;90273.97;4991756;28;20046;-59
2022/03/30 10:10:11;;;;;;;31.60;10.00;;;;;;;19.03;40.23;90276.31;4990858;28;20550;-60
2022/03/30 10:12:37;;;;;;;136.52;17.15;;;;;;;18.64;40.89;90276.03;4991390;28;20035;-59
2022/03/30 10:15:03;;;;;;;23.90;9.95;;;;;;;18.17;41.92;90274.06;4991440;28;20074;-59
2022/03/30 10:17:29;;;;;;;18.45;11.13;;;;;;;19.19;42.22;90273.31;4991362;28;20047;-59
2022/03/30 10:19:58;;;;;;;24.48;9.48;;;;;;;18.51;42.46;90261.28;4990163;28;20046;-58
2022/03/30 10:22:51;;;;;;;22.75;10.95;;;;;;;18.25;43.04;90270.28;4991116;28;20062;-60
2022/03/30 10:25:39;;;;;;;40.50;11.98;;;;;;;20.03;41.22;90258.66;4991436;28;20088;-60
2022/03/30 10:28:43;;;;;;;29.48;9.10;;;;;;;23.62;35.54;90252.28;4991579;28;20061;-60
2022/03/30 10:31:10;;;;;;;32.90;9.85;;;;;;;23.06;34.84;90235.38;4991544;28;20042;-61
2022/03/30 10:33:40;;;;;;;42.92;12.90;;;;;;;22.70;35.22;90241.84;4991367;28;20078;-60
2022/03/30 10:36:26;;;;;;;31.55;10.25;;;;;;;21.67;35.96;90255.16;4991155;28;20046;-61
2022/03/30 10:39:08;;;;;;;21.52;10.20;;;;;;;21.16;37.22;90249.09;4981613;28;20748;-60
2022/03/30 10:42:09;;;;;;;42.13;11.80;;;;;;;21.03;36.18;90247.97;4971327;28;20078;-61
2022/03/30 10:44:38;;;;;;;20.67;8.90;;;;;;;21.63;36.16;90238.94;4971540;28;20501;-60
2022/03/30 10:47:21;;;;;;;24.70;9.35;;;;;;;22.86;35.44;90237.88;4971895;28;20066;-60
2022/03/30 10:49:51;;;;;;;35.20;9.93;;;;;;;22.15;35.15;90235.63;4971566;28;20107;-61
2022/03/30 10:52:37;;;;;;;27.80;10.10;;;;;;;20.58;37.00;90225.97;4971849;28;20101;-60
2022/03/30 10:55:12;;;;;;;21.40;10.77;;;;;;;20.26;37.94;90230.56;4970823;28;20497;-60
2022/03/30 10:57:58;;;;;;;32.85;15.40;;;;;;;19.91;38.39;90223.94;4971332;28;20031;-60
2022/03/30 11:00:36;;;;;;;34.60;11.43;;;;;;;19.36;39.92;90221.41;4971307;28;20097;-59
2022/03/30 11:03:20;;;;;;;34.63;9.52;;;;;;;20.25;37.90;90218.97;4971279;28;20034;-60
2022/03/30 11:06:05;;;;;;;23.35;9.25;;;;;;;20.30;37.58;90212.41;4971715;28;20054;-60
2022/03/30 11:08:33;;;;;;;25.63;10.32;;;;;;;20.22;37.00;90213.59;4970534;28;20043;-60
2022/03/30 11:11:03;;;;;;;47.15;12.13;;;;;;;20.84;36.91;90207.81;4987648;28;20053;-60
2022/03/30 11:13:29;;;;;;;24.30;9.32;;;;;;;20.96;36.36;90212.78;4994302;28;20038;-60
2022/03/30 11:16:00;;;;;;;56.42;11.05;;;;;;;20.69;36.55;90209.75;4994657;28;20053;-60
2022/03/30 11:18:30;;;;;;;21.20;8.45;;;;;;;20.99;36.77;90212.03;4993050;28;20050;-60
2022/03/30 11:21:15;;;;;;;34.13;11.65;;;;;;;21.19;35.91;90205.03;4992930;28;20047;-62
2022/03/30 11:24:03;;;;;;;38.80;12.98;;;;;;;20.63;37.32;90201.25;4993681;28;20046;-60
2022/03/30 11:26:50;;;;;;;30.77;12.80;;;;;;;21.16;36.66;90208.53;4987104;28;20133;-60
2022/03/30 11:29:48;;;;;;;23.27;8.05;;;;;;;21.87;35.57;90198.59;4993634;28;20034;-61
2022/03/30 11:32:28;;;;;;;83.85;12.25;;;;;;;21.16;35.60;90202.34;4990835;28;20424;-60
2022/03/30 11:35:01;;;;;;;114.63;18.02;;;;;;;21.10;35.55;90199.25;4993471;28;20042;-60
2022/03/30 11:37:44;;;;;;;20.10;8.23;;;;;;;21.01;35.83;90196.19;4991843;28;20050;-59